sensor_id;sensor_type;location;lat;lon;timestamp;temperature;humidity
57719;DHT22;43561;50.090;18.522;2023-05-29T00:03:32;12.20;99.90
57719;DHT22;43561;50.090;18.522;2023-05-29T00:13:35;12.10;99.90
57719;DHT22;43561;50.090;18.522;2023-05-29T00:23:37;12.10;99.90
57719;DHT22;43561;50.090;18.522;2023-05-29T00:33:39;11.90;99.90
57719;DHT22;43561;50.090;18.522;2023-05-29T00:43:41;11.70;99.90
57719;DHT22;43561;50.090;18.522;2023-05-29T00:53:44;11.60;99.90
57719;DHT22;43561;50.090;18.522;2023-05-29T01:03:47;11.60;99.90
57719;DHT22;43561;50.090;18.522;2023-05-29T01:13:49;11.30;99.90
57719;DHT22;43561;50.090;18.522;2023-05-29T01:34:35;11.10;99.90
57719;DHT22;43561;50.090;18.522;2023-05-29T01:44:38;10.80;99.90
57719;DHT22;43561;50.090;18.522;2023-05-29T01:54:40;10.50;99.90
57719;DHT22;43561;50.090;18.522;2023-05-29T02:04:42;10.60;99.90
57719;DHT22;43561;50.090;18.522;2023-05-29T02:14:44;10.50;99.90
57719;DHT22;43561;50.090;18.522;2023-05-29T02:24:46;10.30;99.90
57719;DHT22;43561;50.090;18.522;2023-05-29T02:34:48;10.00;99.90
57719;DHT22;43561;50.090;18.522;2023-05-29T02:44:50;10.00;99.90
57719;DHT22;43561;50.090;18.522;2023-05-29T02:54:52;9.70;99.90
57719;DHT22;43561;50.090;18.522;2023-05-29T03:04:54;9.70;99.90
57719;DHT22;43561;50.090;18.522;2023-05-29T03:14:56;9.40;99.90
57719;DHT22;43561;50.090;18.522;2023-05-29T03:24:59;9.60;99.90
57719;DHT22;43561;50.090;18.522;2023-05-29T03:35:02;9.80;99.90
57719;DHT22;43561;50.090;18.522;2023-05-29T03:45:05;10.10;99.90
57719;DHT22;43561;50.090;18.522;2023-05-29T03:55:10;10.30;99.90
57719;DHT22;43561;50.090;18.522;2023-05-29T04:05:12;10.60;99.90
57719;DHT22;43561;50.090;18.522;2023-05-29T04:15:16;11.20;99.90
57719;DHT22;43561;50.090;18.522;2023-05-29T04:25:18;11.70;99.90
57719;DHT22;43561;50.090;18.522;2023-05-29T04:35:21;12.60;99.90
57719;DHT22;43561;50.090;18.522;2023-05-29T04:45:30;13.30;99.90
57719;DHT22;43561;50.090;18.522;2023-05-29T04:55:32;13.60;99.90
57719;DHT22;43561;50.090;18.522;2023-05-29T05:05:34;13.50;99.90
57719;DHT22;43561;50.090;18.522;2023-05-29T05:15:37;13.90;99.90
57719;DHT22;43561;50.090;18.522;2023-05-29T05:25:39;14.50;99.90
57719;DHT22;43561;50.090;18.522;2023-05-29T05:35:41;14.90;99.90
57719;DHT22;43561;50.090;18.522;2023-05-29T05:45:43;15.90;99.90
57719;DHT22;43561;50.090;18.522;2023-05-29T05:55:45;16.20;99.90
57719;DHT22;43561;50.090;18.522;2023-05-29T06:05:48;17.50;98.00
57719;DHT22;43561;50.090;18.522;2023-05-29T06:15:51;17.40;98.40
57719;DHT22;43561;50.090;18.522;2023-05-29T06:25:53;18.20;95.50
57719;DHT22;43561;50.090;18.522;2023-05-29T06:35:55;19.40;91.30
57719;DHT22;43561;50.090;18.522;2023-05-29T06:45:57;19.50;81.30
57719;DHT22;43561;50.090;18.522;2023-05-29T06:55:59;19.80;80.60
57719;DHT22;43561;50.090;18.522;2023-05-29T07:06:01;19.80;69.20
57719;DHT22;43561;50.090;18.522;2023-05-29T07:16:04;21.00;67.60
57719;DHT22;43561;50.090;18.522;2023-05-29T07:26:27;20.10;68.60
57719;DHT22;43561;50.090;18.522;2023-05-29T07:36:30;20.20;68.40
57719;DHT22;43561;50.090;18.522;2023-05-29T07:46:34;21.10;63.80
57719;DHT22;43561;50.090;18.522;2023-05-29T07:57:03;21.00;62.00
57719;DHT22;43561;50.090;18.522;2023-05-29T08:07:06;20.90;62.50
57719;DHT22;43561;50.090;18.522;2023-05-29T08:17:08;21.50;59.70
57719;DHT22;43561;50.090;18.522;2023-05-29T08:27:10;21.70;57.60
57719;DHT22;43561;50.090;18.522;2023-05-29T08:37:12;21.80;55.00
57719;DHT22;43561;50.090;18.522;2023-05-29T08:47:17;22.20;52.00
57719;DHT22;43561;50.090;18.522;2023-05-29T08:57:19;22.60;51.40
57719;DHT22;43561;50.090;18.522;2023-05-29T09:07:22;22.60;51.20
57719;DHT22;43561;50.090;18.522;2023-05-29T09:17:24;22.90;50.10
57719;DHT22;43561;50.090;18.522;2023-05-29T09:27:31;22.60;49.80
57719;DHT22;43561;50.090;18.522;2023-05-29T09:37:35;22.80;49.60
57719;DHT22;43561;50.090;18.522;2023-05-29T09:47:38;22.90;47.30
57719;DHT22;43561;50.090;18.522;2023-05-29T09:57:41;22.70;47.50
57719;DHT22;43561;50.090;18.522;2023-05-29T10:07:45;24.50;47.50
57719;DHT22;43561;50.090;18.522;2023-05-29T10:17:57;24.30;47.40
57719;DHT22;43561;50.090;18.522;2023-05-29T10:28:01;23.70;47.60
57719;DHT22;43561;50.090;18.522;2023-05-29T10:38:12;23.00;46.80
57719;DHT22;43561;50.090;18.522;2023-05-29T10:48:38;23.60;46.80
57719;DHT22;43561;50.090;18.522;2023-05-29T10:58:40;23.30;45.60
57719;DHT22;43561;50.090;18.522;2023-05-29T11:08:46;23.30;45.10
57719;DHT22;43561;50.090;18.522;2023-05-29T11:18:48;23.30;45.10
57719;DHT22;43561;50.090;18.522;2023-05-29T11:28:50;23.50;45.70
57719;DHT22;43561;50.090;18.522;2023-05-29T11:38:52;23.10;45.40
57719;DHT22;43561;50.090;18.522;2023-05-29T11:48:54;23.00;45.30
57719;DHT22;43561;50.090;18.522;2023-05-29T11:58:58;23.00;45.00
57719;DHT22;43561;50.090;18.522;2023-05-29T12:09:00;23.70;45.70
57719;DHT22;43561;50.090;18.522;2023-05-29T12:19:02;23.30;45.60
57719;DHT22;43561;50.090;18.522;2023-05-29T12:29:05;23.30;46.10
57719;DHT22;43561;50.090;18.522;2023-05-29T12:39:07;23.10;46.60
57719;DHT22;43561;50.090;18.522;2023-05-29T12:49:17;23.30;46.10
57719;DHT22;43561;50.090;18.522;2023-05-29T12:59:20;23.10;46.70
57719;DHT22;43561;50.090;18.522;2023-05-29T13:09:22;22.90;45.90
57719;DHT22;43561;50.090;18.522;2023-05-29T13:19:23;23.40;45.20
57719;DHT22;43561;50.090;18.522;2023-05-29T13:29:25;23.20;44.80
57719;DHT22;43561;50.090;18.522;2023-05-29T13:39:28;23.20;45.50
57719;DHT22;43561;50.090;18.522;2023-05-29T13:49:30;22.90;43.80
57719;DHT22;43561;50.090;18.522;2023-05-29T13:59:33;22.80;44.20
57719;DHT22;43561;50.090;18.522;2023-05-29T14:09:35;22.80;43.70
57719;DHT22;43561;50.090;18.522;2023-05-29T14:19:37;22.80;44.60
57719;DHT22;43561;50.090;18.522;2023-05-29T14:29:39;22.60;44.00
57719;DHT22;43561;50.090;18.522;2023-05-29T14:39:41;22.80;46.10
57719;DHT22;43561;50.090;18.522;2023-05-29T14:49:43;22.80;46.20
57719;DHT22;43561;50.090;18.522;2023-05-29T14:59:45;22.60;45.30
57719;DHT22;43561;50.090;18.522;2023-05-29T15:09:47;22.60;45.60
57719;DHT22;43561;50.090;18.522;2023-05-29T15:19:49;22.60;46.10
57719;DHT22;43561;50.090;18.522;2023-05-29T15:29:51;22.60;46.60
57719;DHT22;43561;50.090;18.522;2023-05-29T15:39:55;22.40;46.80
57719;DHT22;43561;50.090;18.522;2023-05-29T15:49:57;22.40;46.40
57719;DHT22;43561;50.090;18.522;2023-05-29T15:59:59;22.20;46.60
57719;DHT22;43561;50.090;18.522;2023-05-29T16:10:03;22.20;46.90
57719;DHT22;43561;50.090;18.522;2023-05-29T16:20:05;22.30;47.50
57719;DHT22;43561;50.090;18.522;2023-05-29T16:30:08;22.20;47.20
57719;DHT22;43561;50.090;18.522;2023-05-29T16:40:10;22.00;47.80
57719;DHT22;43561;50.090;18.522;2023-05-29T16:50:12;22.00;47.80
57719;DHT22;43561;50.090;18.522;2023-05-29T17:00:14;21.90;48.00
57719;DHT22;43561;50.090;18.522;2023-05-29T17:10:17;21.80;48.00
57719;DHT22;43561;50.090;18.522;2023-05-29T17:20:19;21.60;48.70
57719;DHT22;43561;50.090;18.522;2023-05-29T17:30:20;21.50;48.90
57719;DHT22;43561;50.090;18.522;2023-05-29T17:40:22;21.30;49.50
57719;DHT22;43561;50.090;18.522;2023-05-29T17:50:24;21.10;50.00
57719;DHT22;43561;50.090;18.522;2023-05-29T18:00:26;20.70;50.20
57719;DHT22;43561;50.090;18.522;2023-05-29T18:10:28;20.40;50.10
57719;DHT22;43561;50.090;18.522;2023-05-29T18:20:30;20.20;50.40
57719;DHT22;43561;50.090;18.522;2023-05-29T18:30:32;19.80;50.70
57719;DHT22;43561;50.090;18.522;2023-05-29T18:40:34;19.50;51.50
57719;DHT22;43561;50.090;18.522;2023-05-29T18:50:37;19.20;52.60
57719;DHT22;43561;50.090;18.522;2023-05-29T19:00:39;18.90;52.80
57719;DHT22;43561;50.090;18.522;2023-05-29T19:10:41;18.70;54.20
57719;DHT22;43561;50.090;18.522;2023-05-29T19:20:43;18.50;55.70
57719;DHT22;43561;50.090;18.522;2023-05-29T19:30:45;18.30;57.20
57719;DHT22;43561;50.090;18.522;2023-05-29T19:40:47;18.10;58.20
57719;DHT22;43561;50.090;18.522;2023-05-29T19:50:49;18.00;59.50
57719;DHT22;43561;50.090;18.522;2023-05-29T20:00:51;17.90;60.20
57719;DHT22;43561;50.090;18.522;2023-05-29T20:10:53;17.80;60.40
57719;DHT22;43561;50.090;18.522;2023-05-29T20:21:00;17.60;61.30
57719;DHT22;43561;50.090;18.522;2023-05-29T20:31:03;17.40;61.00
57719;DHT22;43561;50.090;18.522;2023-05-29T20:41:05;17.30;65.10
57719;DHT22;43561;50.090;18.522;2023-05-29T20:51:07;17.00;72.90
57719;DHT22;43561;50.090;18.522;2023-05-29T21:01:08;16.90;72.60
57719;DHT22;43561;50.090;18.522;2023-05-29T21:11:11;16.80;74.50
57719;DHT22;43561;50.090;18.522;2023-05-29T21:21:13;16.80;71.40
57719;DHT22;43561;50.090;18.522;2023-05-29T21:31:15;16.50;74.40
57719;DHT22;43561;50.090;18.522;2023-05-29T21:41:17;16.50;74.60
57719;DHT22;43561;50.090;18.522;2023-05-29T21:51:21;16.10;84.70
57719;DHT22;43561;50.090;18.522;2023-05-29T22:01:23;15.60;93.50
57719;DHT22;43561;50.090;18.522;2023-05-29T22:11:25;15.40;96.10
57719;DHT22;43561;50.090;18.522;2023-05-29T22:21:27;15.30;96.50
57719;DHT22;43561;50.090;18.522;2023-05-29T22:31:29;15.50;95.60
57719;DHT22;43561;50.090;18.522;2023-05-29T22:41:31;15.40;96.40
57719;DHT22;43561;50.090;18.522;2023-05-29T22:51:33;15.40;95.90
57719;DHT22;43561;50.090;18.522;2023-05-29T23:01:41;15.30;96.50
57719;DHT22;43561;50.090;18.522;2023-05-29T23:11:43;15.10;97.40
57719;DHT22;43561;50.090;18.522;2023-05-29T23:21:45;15.10;97.90
57719;DHT22;43561;50.090;18.522;2023-05-29T23:31:47;15.00;98.60
57719;DHT22;43561;50.090;18.522;2023-05-29T23:41:49;15.00;99.10
57719;DHT22;43561;50.090;18.522;2023-05-29T23:51:51;15.00;99.40
